createdAt,value
2023-05-07T00:01:54.340Z,14.83
2023-05-07T00:04:22.718Z,14.85
2023-05-07T00:06:50.928Z,14.84
2023-05-07T00:09:19.068Z,14.82
2023-05-07T00:11:47.266Z,14.84
2023-05-07T00:14:15.593Z,14.84
2023-05-07T00:16:45.181Z,14.84
2023-05-07T00:19:13.629Z,14.84
2023-05-07T00:21:41.988Z,14.83
2023-05-07T00:24:10.262Z,14.84
2023-05-07T00:26:38.442Z,14.82
2023-05-07T00:29:06.770Z,14.80
2023-05-07T00:31:34.982Z,14.76
2023-05-07T00:34:04.569Z,14.74
2023-05-07T00:36:32.754Z,14.70
2023-05-07T00:39:04.325Z,14.68
2023-05-07T00:41:32.875Z,14.65
2023-05-07T00:44:03.593Z,14.61
2023-05-07T00:46:33.993Z,14.59
2023-05-07T00:49:03.007Z,14.58
2023-05-07T00:51:32.706Z,14.56
2023-05-07T00:54:04.250Z,14.58
2023-05-07T00:56:32.284Z,14.62
2023-05-07T00:59:00.595Z,14.63
2023-05-07T01:01:29.021Z,14.64
2023-05-07T01:03:57.446Z,14.66
2023-05-07T01:06:28.916Z,14.68
2023-05-07T01:08:59.221Z,14.68
2023-05-07T01:11:28.144Z,14.69
2023-05-07T01:13:56.475Z,14.70
2023-05-07T01:16:24.712Z,14.71
2023-05-07T01:18:52.904Z,14.73
2023-05-07T01:21:27.638Z,14.69
2023-05-07T01:23:57.814Z,14.72
2023-05-07T01:26:25.980Z,14.73
2023-05-07T01:28:54.178Z,14.73
2023-05-07T01:31:22.992Z,14.72
2023-05-07T01:33:52.318Z,14.74
2023-05-07T01:36:24.032Z,14.74
2023-05-07T01:38:52.978Z,14.76
2023-05-07T01:41:23.795Z,14.74
2023-05-07T01:43:54.097Z,14.74
2023-05-07T01:46:23.418Z,14.75
2023-05-07T01:48:53.524Z,14.76
2023-05-07T01:51:23.642Z,14.75
2023-05-07T01:53:52.165Z,14.77
2023-05-07T01:56:21.236Z,14.77
2023-05-07T01:58:52.311Z,14.73
2023-05-07T02:01:20.603Z,14.72
2023-05-07T02:03:49.808Z,14.72
2023-05-07T02:06:18.104Z,14.72
2023-05-07T02:08:46.435Z,14.70
2023-05-07T02:11:14.845Z,14.72
2023-05-07T02:13:43.739Z,14.72
2023-05-07T02:16:15.499Z,14.72
2023-05-07T02:18:43.628Z,14.70
2023-05-07T02:21:11.842Z,14.67
2023-05-07T02:23:40.049Z,14.67
2023-05-07T02:26:08.180Z,14.65
2023-05-07T02:28:37.046Z,14.65
2023-05-07T02:31:05.526Z,14.66
2023-05-07T02:33:36.022Z,14.65
2023-05-07T02:36:11.552Z,14.65
2023-05-07T02:38:40.180Z,14.64
2023-05-07T02:41:08.333Z,14.62
2023-05-07T02:43:36.652Z,14.64
2023-05-07T02:46:05.728Z,14.63
2023-05-07T02:48:35.689Z,14.65
2023-05-07T02:51:04.509Z,14.64
2023-05-07T02:53:32.619Z,14.64
2023-05-07T02:56:02.585Z,14.60
2023-05-07T02:58:30.960Z,14.59
2023-05-07T03:00:59.186Z,14.54
2023-05-07T03:03:27.551Z,14.52
2023-05-07T03:05:57.221Z,14.50
2023-05-07T03:08:27.020Z,14.47
2023-05-07T03:10:55.455Z,14.43
2023-05-07T03:13:23.799Z,14.42
2023-05-07T03:15:52.179Z,14.40
2023-05-07T03:18:20.454Z,14.38
2023-05-07T03:20:48.815Z,14.33
2023-05-07T03:23:18.467Z,14.33
2023-05-07T03:25:46.601Z,14.29
2023-05-07T03:28:14.904Z,14.28
2023-05-07T03:30:43.153Z,14.30
2023-05-07T03:33:11.302Z,14.33
2023-05-07T03:35:39.520Z,14.35
2023-05-07T03:38:08.026Z,14.34
2023-05-07T03:40:37.678Z,14.35
2023-05-07T03:43:05.937Z,14.37
2023-05-07T03:45:34.080Z,14.39
2023-05-07T03:48:02.297Z,14.38
2023-05-07T03:50:30.561Z,14.40
2023-05-07T03:52:58.780Z,14.41
2023-05-07T03:55:27.069Z,14.42
2023-05-07T03:57:57.678Z,14.43
2023-05-07T04:00:25.940Z,14.42
2023-05-07T04:02:54.186Z,14.42
2023-05-07T04:05:22.511Z,14.42
2023-05-07T04:07:50.659Z,14.44
2023-05-07T04:10:18.958Z,14.43
2023-05-07T04:12:47.303Z,14.41
2023-05-07T04:15:17.191Z,14.43
2023-05-07T04:17:45.420Z,14.47
2023-05-07T04:20:19.863Z,14.49
2023-05-07T04:22:48.038Z,14.49
2023-05-07T04:25:16.522Z,14.50
2023-05-07T04:27:44.714Z,14.49
2023-05-07T04:30:14.878Z,14.51
2023-05-07T04:32:45.734Z,14.51
2023-05-07T04:35:14.031Z,14.52
2023-05-07T04:37:42.332Z,14.54
2023-05-07T04:40:11.456Z,14.55
2023-05-07T04:42:39.868Z,14.54
2023-05-07T04:45:09.821Z,14.55
2023-05-07T04:47:38.806Z,14.53
2023-05-07T04:50:10.219Z,14.52
2023-05-07T04:52:38.389Z,14.53
2023-05-07T04:55:07.316Z,14.54
2023-05-07T04:57:35.673Z,14.52
2023-05-07T05:00:05.403Z,14.54
2023-05-07T05:02:33.562Z,14.53
2023-05-07T05:05:02.624Z,14.54
2023-05-07T05:07:32.653Z,14.55
2023-05-07T05:10:00.973Z,14.60
2023-05-07T05:12:29.252Z,14.61
2023-05-07T05:14:57.518Z,14.56
2023-05-07T05:17:25.727Z,14.57
2023-05-07T05:19:53.968Z,14.57
2023-05-07T05:22:22.263Z,14.56
2023-05-07T05:24:51.967Z,14.56
2023-05-07T05:27:20.206Z,14.59
2023-05-07T05:29:48.393Z,14.54
2023-05-07T05:32:16.699Z,14.53
2023-05-07T05:34:45.123Z,14.51
2023-05-07T05:37:13.412Z,14.48
2023-05-07T05:39:41.609Z,14.51
2023-05-07T05:42:11.093Z,14.53
2023-05-07T05:44:39.398Z,14.55
2023-05-07T05:47:07.709Z,14.55
2023-05-07T05:49:36.204Z,14.58
2023-05-07T05:52:04.408Z,14.61
2023-05-07T05:54:32.822Z,14.65
2023-05-07T05:57:01.324Z,14.70
2023-05-07T05:59:31.742Z,14.74
2023-05-07T06:02:00.271Z,14.82
2023-05-07T06:04:28.583Z,14.92
2023-05-07T06:06:57.870Z,14.93
2023-05-07T06:09:26.166Z,14.97
2023-05-07T06:11:54.394Z,14.98
2023-05-07T06:14:22.654Z,15.03
2023-05-07T06:16:52.387Z,15.08
2023-05-07T06:19:24.326Z,15.09
2023-05-07T06:21:52.605Z,15.13
2023-05-07T06:24:20.758Z,15.17
2023-05-07T06:26:48.948Z,15.21
2023-05-07T06:29:17.191Z,15.27
2023-05-07T06:31:45.321Z,15.40
2023-05-07T06:34:16.302Z,15.46
2023-05-07T06:36:44.514Z,15.51
2023-05-07T06:39:13.134Z,15.50
2023-05-07T06:41:41.371Z,15.57
2023-05-07T06:44:09.766Z,15.66
2023-05-07T06:46:38.284Z,15.71
2023-05-07T06:49:06.708Z,15.74
2023-05-07T06:51:36.335Z,15.82
2023-05-07T06:54:05.570Z,15.84
2023-05-07T06:56:34.059Z,15.90
2023-05-07T06:59:02.477Z,15.94
2023-05-07T07:01:30.973Z,15.92
2023-05-07T07:03:59.270Z,15.95
2023-05-07T07:06:28.038Z,15.99
2023-05-07T07:08:57.608Z,15.98
2023-05-07T07:11:26.020Z,16.05
2023-05-07T07:13:55.556Z,16.07
2023-05-07T07:16:24.349Z,16.15
2023-05-07T07:18:53.135Z,16.21
2023-05-07T07:21:21.328Z,16.23
2023-05-07T07:23:49.656Z,16.26
2023-05-07T07:26:19.933Z,16.25
2023-05-07T07:28:48.699Z,16.16
2023-05-07T07:31:16.962Z,16.15
2023-05-07T07:33:45.159Z,16.09
2023-05-07T07:36:13.784Z,16.13
2023-05-07T07:38:42.254Z,16.32
2023-05-07T07:41:10.945Z,16.49
2023-05-07T07:43:40.615Z,16.61
2023-05-07T07:46:09.123Z,16.67
2023-05-07T07:48:37.563Z,16.71
2023-05-07T07:51:06.187Z,16.70
2023-05-07T07:53:34.491Z,16.66
2023-05-07T07:56:05.633Z,16.60
2023-05-07T07:58:34.066Z,16.53
2023-05-07T08:01:03.676Z,16.66
2023-05-07T08:03:33.573Z,16.72
2023-05-07T08:06:01.956Z,16.78
2023-05-07T08:08:30.217Z,16.83
2023-05-07T08:10:58.410Z,16.85
2023-05-07T08:13:26.798Z,16.83
2023-05-07T08:15:55.147Z,16.81
2023-05-07T08:18:25.863Z,16.85
2023-05-07T08:20:54.592Z,16.82
2023-05-07T08:23:22.782Z,16.74
2023-05-07T08:25:52.379Z,16.70
2023-05-07T08:28:20.957Z,16.72
2023-05-07T08:30:49.218Z,16.75
2023-05-07T08:33:17.433Z,16.77
2023-05-07T08:35:47.141Z,16.78
2023-05-07T08:38:15.370Z,16.77
2023-05-07T08:40:43.460Z,16.80
2023-05-07T08:43:15.036Z,16.86
2023-05-07T08:45:43.679Z,17.00
2023-05-07T08:48:19.231Z,17.14
2023-05-07T08:50:48.905Z,17.29
2023-05-07T08:53:18.587Z,17.36
2023-05-07T08:55:48.342Z,17.44
2023-05-07T08:58:16.653Z,17.48
2023-05-07T09:00:44.760Z,17.57
2023-05-07T09:03:14.075Z,17.60
2023-05-07T09:05:42.424Z,17.69
2023-05-07T09:08:12.039Z,17.80
2023-05-07T09:10:40.316Z,17.82
2023-05-07T09:13:08.600Z,17.86
2023-05-07T09:15:36.856Z,17.92
2023-05-07T09:18:05.446Z,17.96
2023-05-07T09:20:34.010Z,17.90
2023-05-07T09:23:02.208Z,17.87
2023-05-07T09:25:33.270Z,17.92
2023-05-07T09:28:02.406Z,17.96
2023-05-07T09:30:31.989Z,18.06
2023-05-07T09:33:01.594Z,18.23
2023-05-07T09:35:30.377Z,18.27
2023-05-07T09:38:03.671Z,18.40
2023-05-07T09:40:33.952Z,18.48
2023-05-07T09:43:12.819Z,18.34
2023-05-07T09:45:41.230Z,18.27
2023-05-07T09:48:10.856Z,18.25
2023-05-07T09:50:50.285Z,18.39
2023-05-07T09:53:19.607Z,18.68
2023-05-07T09:55:49.792Z,18.85
2023-05-07T09:58:19.799Z,19.03
2023-05-07T10:00:48.648Z,19.19
2023-05-07T10:03:18.441Z,19.32
2023-05-07T10:05:48.610Z,19.41
2023-05-07T10:08:18.086Z,19.45
2023-05-07T10:10:48.594Z,19.38
2023-05-07T10:13:17.313Z,19.30
2023-05-07T10:15:45.953Z,19.28
2023-05-07T10:18:15.955Z,19.21
2023-05-07T10:20:48.719Z,19.00
2023-05-07T10:23:20.457Z,18.76
2023-05-07T10:25:51.553Z,18.60
2023-05-07T10:28:23.727Z,18.68
2023-05-07T10:31:02.527Z,18.65
2023-05-07T10:33:32.875Z,18.73
2023-05-07T10:36:05.535Z,18.72
2023-05-07T10:38:34.545Z,18.76
2023-05-07T10:41:06.729Z,18.86
2023-05-07T10:43:43.297Z,18.89
2023-05-07T10:46:17.877Z,18.99
2023-05-07T10:49:12.638Z,19.04
2023-05-07T10:51:41.602Z,19.12
2023-05-07T10:54:26.098Z,19.23
2023-05-07T10:56:56.006Z,19.27
2023-05-07T10:59:48.966Z,19.26
2023-05-07T11:02:17.172Z,19.28
2023-05-07T11:04:45.858Z,19.35
2023-05-07T11:07:31.178Z,19.41
2023-05-07T11:10:05.719Z,19.49
2023-05-07T11:12:55.782Z,19.60
2023-05-07T11:15:39.069Z,19.47
2023-05-07T11:18:08.148Z,19.49
2023-05-07T11:21:04.480Z,19.30
2023-05-07T11:23:57.844Z,19.23
2023-05-07T11:26:27.273Z,19.36
2023-05-07T11:28:58.026Z,19.39
2023-05-07T11:31:29.424Z,19.57
2023-05-07T11:33:57.606Z,19.60
2023-05-07T11:36:27.201Z,19.73
2023-05-07T11:38:55.412Z,19.61
2023-05-07T11:41:23.809Z,19.39
2023-05-07T11:44:01.151Z,19.12
2023-05-07T11:46:30.761Z,18.93
2023-05-07T11:48:59.299Z,18.74
2023-05-07T11:51:31.049Z,18.75
2023-05-07T11:53:59.129Z,18.76
2023-05-07T11:56:27.454Z,18.98
2023-05-07T11:58:56.065Z,19.10
2023-05-07T12:01:25.569Z,19.17
2023-05-07T12:03:53.952Z,19.10
2023-05-07T12:06:22.291Z,18.98
2023-05-07T12:08:50.501Z,18.96
2023-05-07T12:11:24.480Z,18.90
2023-05-07T12:13:52.710Z,18.74
2023-05-07T12:16:21.833Z,18.78
2023-05-07T12:18:53.839Z,18.96
2023-05-07T12:21:22.435Z,19.10
2023-05-07T12:23:50.784Z,19.25
2023-05-07T12:26:19.031Z,19.36
2023-05-07T12:28:48.220Z,19.61
2023-05-07T12:31:17.252Z,19.81
2023-05-07T12:33:45.684Z,19.98
2023-05-07T12:36:15.837Z,20.12
2023-05-07T12:38:43.952Z,20.07
2023-05-07T12:41:13.616Z,20.20
2023-05-07T12:43:41.917Z,20.46
2023-05-07T12:46:10.158Z,20.46
2023-05-07T12:48:39.880Z,20.31
2023-05-07T12:51:08.779Z,20.19
2023-05-07T12:53:43.472Z,20.11
2023-05-07T12:56:11.772Z,20.08
2023-05-07T12:58:39.936Z,20.07
2023-05-07T13:01:11.104Z,20.14
2023-05-07T13:03:40.980Z,20.11
2023-05-07T13:06:13.372Z,20.12
2023-05-07T13:08:44.310Z,20.06
2023-05-07T13:11:13.648Z,19.96
2023-05-07T13:13:43.434Z,19.88
2023-05-07T13:16:13.641Z,19.81
2023-05-07T13:18:45.080Z,19.72
2023-05-07T13:21:14.441Z,19.68
2023-05-07T13:23:44.280Z,19.69
2023-05-07T13:26:25.718Z,19.62
2023-05-07T13:28:55.588Z,19.57
2023-05-07T13:31:23.876Z,19.58
2023-05-07T13:33:52.170Z,19.59
2023-05-07T13:36:20.292Z,19.57
2023-05-07T13:38:49.909Z,19.72
2023-05-07T13:41:18.134Z,19.90
2023-05-07T13:43:46.652Z,20.02
2023-05-07T13:46:14.860Z,20.16
2023-05-07T13:48:43.161Z,20.29
2023-05-07T13:51:11.520Z,20.40
2023-05-07T13:53:39.674Z,20.52
2023-05-07T13:56:09.308Z,20.58
2023-05-07T13:58:42.195Z,20.72
2023-05-07T14:01:16.749Z,20.87
2023-05-07T14:03:45.104Z,21.02
2023-05-07T14:06:13.384Z,21.18
2023-05-07T14:08:41.721Z,21.31
2023-05-07T14:11:11.508Z,21.42
2023-05-07T14:13:39.671Z,21.53
2023-05-07T14:16:08.492Z,21.59
2023-05-07T14:18:38.246Z,21.73
2023-05-07T14:21:10.748Z,21.74
2023-05-07T14:23:38.944Z,21.81
2023-05-07T14:26:07.331Z,21.94
2023-05-07T14:28:36.881Z,22.02
2023-05-07T14:31:05.086Z,22.02
2023-05-07T14:33:33.940Z,22.03
2023-05-07T14:36:02.177Z,21.98
2023-05-07T14:38:30.440Z,21.89
2023-05-07T14:40:58.695Z,21.79
2023-05-07T14:43:26.861Z,21.59
2023-05-07T14:45:56.492Z,21.50
2023-05-07T14:48:24.608Z,21.39
2023-05-07T14:50:52.802Z,21.16
2023-05-07T14:53:21.226Z,20.94
2023-05-07T14:55:49.906Z,20.73
2023-05-07T14:58:18.176Z,20.58
2023-05-07T15:00:46.541Z,20.42
2023-05-07T15:03:16.600Z,20.26
2023-05-07T15:05:44.913Z,20.02
2023-05-07T15:08:13.092Z,19.92
2023-05-07T15:10:42.774Z,19.83
2023-05-07T15:13:14.695Z,19.78
2023-05-07T15:15:44.970Z,19.65
2023-05-07T15:18:13.274Z,19.65
2023-05-07T15:20:43.118Z,19.50
2023-05-07T15:23:13.267Z,19.35
2023-05-07T15:25:41.708Z,19.10
2023-05-07T15:28:09.906Z,19.10
2023-05-07T15:30:38.082Z,19.04
2023-05-07T15:33:06.646Z,19.06
2023-05-07T15:35:35.106Z,18.99
2023-05-07T15:38:05.066Z,18.90
2023-05-07T15:40:35.424Z,18.86
2023-05-07T15:43:03.724Z,18.96
2023-05-07T15:45:32.147Z,19.12
2023-05-07T15:48:00.656Z,19.18
2023-05-07T15:50:29.692Z,19.24
2023-05-07T15:52:58.407Z,19.26
2023-05-07T15:55:28.003Z,19.25
2023-05-07T15:57:56.834Z,19.29
2023-05-07T16:00:28.739Z,19.25
2023-05-07T16:02:57.076Z,19.20
2023-05-07T16:05:25.398Z,19.27
2023-05-07T16:07:53.539Z,19.29
2023-05-07T16:10:21.759Z,19.35
2023-05-07T16:12:51.362Z,19.39
2023-05-07T16:15:19.784Z,19.40
2023-05-07T16:17:49.825Z,19.39
2023-05-07T16:20:20.048Z,19.41
2023-05-07T16:22:48.666Z,19.38
2023-05-07T16:25:16.835Z,19.39
2023-05-07T16:27:45.007Z,19.37
2023-05-07T16:30:14.993Z,19.29
2023-05-07T16:32:43.340Z,19.28
2023-05-07T16:35:12.516Z,19.29
2023-05-07T16:37:42.696Z,19.30
2023-05-07T16:40:12.733Z,19.34
2023-05-07T16:42:41.081Z,19.36
2023-05-07T16:45:10.150Z,19.39
2023-05-07T16:47:39.958Z,19.33
2023-05-07T16:50:08.949Z,19.36
2023-05-07T16:52:37.614Z,19.40
2023-05-07T16:55:06.868Z,19.32
2023-05-07T16:57:35.050Z,19.28
2023-05-07T17:00:07.475Z,19.27
2023-05-07T17:02:36.315Z,19.18
2023-05-07T17:05:07.617Z,18.85
2023-05-07T17:07:36.031Z,18.61
2023-05-07T17:10:05.936Z,18.49
2023-05-07T17:12:36.041Z,18.33
2023-05-07T17:15:04.824Z,18.22
2023-05-07T17:17:33.906Z,17.98
2023-05-07T17:20:02.267Z,17.95
2023-05-07T17:22:31.862Z,17.81
2023-05-07T17:25:01.343Z,17.75
2023-05-07T17:27:29.684Z,17.78
2023-05-07T17:29:57.884Z,17.70
2023-05-07T17:32:26.441Z,17.69
2023-05-07T17:34:54.732Z,17.68
2023-05-07T17:37:23.777Z,17.56
2023-05-07T17:39:53.783Z,17.62
2023-05-07T17:42:21.905Z,17.57
2023-05-07T17:44:51.127Z,17.56
2023-05-07T17:47:19.320Z,17.63
2023-05-07T17:49:47.528Z,17.74
2023-05-07T17:52:15.733Z,17.81
2023-05-07T17:54:43.930Z,17.90
2023-05-07T17:57:13.763Z,17.96
2023-05-07T17:59:42.026Z,17.98
2023-05-07T18:02:10.288Z,18.01
2023-05-07T18:04:38.470Z,17.99
2023-05-07T18:07:06.615Z,17.98
2023-05-07T18:09:35.005Z,17.94
2023-05-07T18:12:03.221Z,17.92
2023-05-07T18:14:32.803Z,17.93
2023-05-07T18:17:00.880Z,17.93
2023-05-07T18:19:29.108Z,17.99
2023-05-07T18:21:57.952Z,18.01
2023-05-07T18:24:27.218Z,18.03
2023-05-07T18:26:55.508Z,18.03
2023-05-07T18:29:24.286Z,17.99
2023-05-07T18:31:53.909Z,17.91
2023-05-07T18:34:22.205Z,17.81
2023-05-07T18:36:50.410Z,17.74
2023-05-07T18:39:18.601Z,17.76
2023-05-07T18:41:48.964Z,17.72
2023-05-07T18:44:17.166Z,17.78
2023-05-07T18:46:47.913Z,17.79
2023-05-07T18:49:17.493Z,17.74
2023-05-07T18:51:46.262Z,17.70
2023-05-07T18:54:14.427Z,17.70
2023-05-07T18:56:42.926Z,17.65
2023-05-07T18:59:11.642Z,17.60
2023-05-07T19:01:39.838Z,17.56
2023-05-07T19:04:08.597Z,17.54
2023-05-07T19:06:38.188Z,17.52
2023-05-07T19:09:06.492Z,17.45
2023-05-07T19:11:34.898Z,17.45
2023-05-07T19:14:04.553Z,17.45
2023-05-07T19:16:33.090Z,17.38
2023-05-07T19:19:01.373Z,17.40
2023-05-07T19:21:29.814Z,17.36
2023-05-07T19:23:59.438Z,17.37
2023-05-07T19:26:27.781Z,17.34
2023-05-07T19:29:12.489Z,17.33
2023-05-07T19:31:45.265Z,17.29
2023-05-07T19:34:14.538Z,17.28
2023-05-07T19:36:42.859Z,17.22
2023-05-07T19:39:13.182Z,17.24
2023-05-07T19:41:42.386Z,17.20
2023-05-07T19:44:11.567Z,17.23
2023-05-07T19:46:44.745Z,17.28
2023-05-07T19:49:13.268Z,17.27
2023-05-07T19:51:41.645Z,17.14
2023-05-07T19:54:10.024Z,17.06
2023-05-07T19:56:40.080Z,17.04
2023-05-07T19:59:08.402Z,17.01
2023-05-07T20:01:36.825Z,17.01
2023-05-07T20:04:05.320Z,16.99
2023-05-07T20:06:33.521Z,16.96
2023-05-07T20:09:01.749Z,16.99
2023-05-07T20:11:29.915Z,16.95
2023-05-07T20:13:59.515Z,16.88
2023-05-07T20:16:27.752Z,16.91
2023-05-07T20:18:55.960Z,16.95
2023-05-07T20:21:24.252Z,16.98
2023-05-07T20:23:52.405Z,16.97
2023-05-07T20:26:21.370Z,16.98
2023-05-07T20:28:49.559Z,16.96
2023-05-07T20:31:20.676Z,16.91
2023-05-07T20:33:50.037Z,16.90
2023-05-07T20:36:18.186Z,16.90
2023-05-07T20:38:46.960Z,16.82
2023-05-07T20:41:15.186Z,16.69
2023-05-07T20:43:43.720Z,16.67
2023-05-07T20:46:12.047Z,16.65
2023-05-07T20:48:41.624Z,16.65
2023-05-07T20:51:10.920Z,16.67
2023-05-07T20:53:40.855Z,16.58
2023-05-07T20:56:09.061Z,16.63
2023-05-07T20:58:37.952Z,16.61
2023-05-07T21:01:07.029Z,16.61
2023-05-07T21:03:35.384Z,16.61
2023-05-07T21:06:05.141Z,16.57
2023-05-07T21:08:33.528Z,16.46
2023-05-07T21:11:01.580Z,16.49
2023-05-07T21:13:29.771Z,16.48
2023-05-07T21:15:58.041Z,16.57
2023-05-07T21:18:26.906Z,16.61
2023-05-07T21:20:55.054Z,16.53
2023-05-07T21:23:24.878Z,16.50
2023-05-07T21:25:53.074Z,16.37
2023-05-07T21:28:21.367Z,16.34
2023-05-07T21:30:51.150Z,16.36
2023-05-07T21:33:19.874Z,16.35
2023-05-07T21:35:48.094Z,16.34
2023-05-07T21:38:16.260Z,16.34
2023-05-07T21:40:46.028Z,16.35
2023-05-07T21:43:14.213Z,16.34
2023-05-07T21:45:42.408Z,16.32
2023-05-07T21:48:10.860Z,16.20
2023-05-07T21:50:39.219Z,16.21
2023-05-07T21:53:07.453Z,16.15
2023-05-07T21:55:35.646Z,16.04
2023-05-07T21:58:06.260Z,16.03
2023-05-07T22:00:34.703Z,15.99
2023-05-07T22:03:03.137Z,16.02
2023-05-07T22:05:31.461Z,15.98
2023-05-07T22:07:59.645Z,15.95
2023-05-07T22:10:27.926Z,15.80
2023-05-07T22:12:56.153Z,15.81
2023-05-07T22:15:25.772Z,15.80
2023-05-07T22:17:53.962Z,15.76
2023-05-07T22:20:22.296Z,15.71
2023-05-07T22:22:52.791Z,15.73
2023-05-07T22:25:22.501Z,15.66
2023-05-07T22:27:52.615Z,15.74
2023-05-07T22:30:23.393Z,15.74
2023-05-07T22:32:54.481Z,15.66
2023-05-07T22:35:25.015Z,15.67
2023-05-07T22:37:55.765Z,15.69
2023-05-07T22:40:25.538Z,15.64
2023-05-07T22:42:53.947Z,15.59
2023-05-07T22:45:25.215Z,15.57
2023-05-07T22:47:55.477Z,15.59
2023-05-07T22:50:23.835Z,15.60
2023-05-07T22:52:55.106Z,15.53
2023-05-07T22:55:23.427Z,15.53
2023-05-07T22:57:51.657Z,15.50
2023-05-07T23:00:20.002Z,15.49
2023-05-07T23:02:48.357Z,15.50
2023-05-07T23:05:18.568Z,15.51
2023-05-07T23:07:46.788Z,15.51
2023-05-07T23:10:15.144Z,15.59
2023-05-07T23:12:44.043Z,15.64
2023-05-07T23:15:13.019Z,15.66
2023-05-07T23:17:41.369Z,15.72
2023-05-07T23:20:10.626Z,15.76
2023-05-07T23:22:40.514Z,15.76
2023-05-07T23:25:09.976Z,15.79
2023-05-07T23:27:38.307Z,15.84
2023-05-07T23:30:07.745Z,15.84
2023-05-07T23:32:35.877Z,15.91
2023-05-07T23:35:04.096Z,15.92
2023-05-07T23:37:32.269Z,15.90
2023-05-07T23:40:01.899Z,15.96
2023-05-07T23:42:30.136Z,15.94
2023-05-07T23:44:58.379Z,15.99
2023-05-07T23:47:27.054Z,15.96
2023-05-07T23:49:55.248Z,15.99
2023-05-07T23:52:23.462Z,15.98
2023-05-07T23:54:51.803Z,15.98
2023-05-07T23:57:21.300Z,15.98
2023-05-07T23:59:49.462Z,15.97
